Date,TemperatureHighF,TemperatureAvgF,TemperatureLowF,DewpointHighF,DewpointAvgF,DewpointLowF,HumidityHigh,HumidityAvg,HumidityLow,PressureMaxIn,PressureMinIn,WindSpeedMaxMPH,WindSpeedAvgMPH,GustSpeedMaxMPH,PrecipitationSumIn
2013-1-1,40.0,37.5,27.0,31.0,25.7,13.0,70,62,51,30.02,29.83,5,2,14,0.01
2013-1-2,34.0,28.3,23.0,19.0,14.8,12.0,63,57,47,30.18,30.01,3,1,12,0.00
2013-1-3,34.0,30.0,25.0,20.0,18.0,16.0,71,61,49,30.20,30.06,3,1,12,0.00
2013-1-4,39.0,35.4,32.0,24.0,22.9,20.0,67,60,53,30.09,29.95,7,3,18,0.00
2013-1-5,44.0,37.5,33.0,26.0,23.1,20.0,62,56,47,30.27,30.01,4,1,14,0.00
2013-1-6,47.0,40.5,35.0,34.0,29.3,24.0,86,65,51,30.22,29.97,5,1,12,0.00
2013-1-7,46.0,40.8,37.0,32.0,27.0,23.0,73,59,42,30.40,30.04,4,0,7,0.00
2013-1-8,50.0,42.6,37.0,35.0,30.7,25.0,72,63,53,30.43,30.34,3,1,12,0.00
2013-1-9,50.0,44.1,37.0,40.0,34.8,29.0,86,70,63,30.39,30.13,7,1,21,0.00
2013-1-10,48.0,44.5,41.0,35.0,27.9,25.0,63,52,41,30.55,30.22,4,1,13,0.00
2013-1-11,45.0,40.8,38.0,44.0,32.7,25.0,95,74,55,30.55,30.10,2,0,7,0.44
2013-1-12,46.0,44.4,43.0,45.0,43.1,42.0,96,95,92,30.18,30.07,2,0,8,0.42
2013-1-13,50.0,45.8,43.0,48.0,44.5,42.0,97,95,92,30.16,30.01,3,1,9,0.01
2013-1-14,56.0,50.8,40.0,54.0,45.0,35.0,98,82,56,30.30,29.92,3,0,8,0.06
2013-1-15,40.0,38.0,36.0,35.0,29.6,27.0,87,72,62,30.35,30.23,3,1,9,0.14
2013-1-16,38.0,35.0,33.0,36.0,32.9,29.0,95,92,74,30.23,29.80,4,1,10,0.58
2013-1-17,44.0,40.3,37.0,35.0,30.2,25.0,88,67,56,30.09,29.91,4,1,12,0.08
2013-1-18,36.0,29.9,25.0,25.0,13.6,6.0,66,51,36,30.48,30.01,4,1,12,0.01
2013-1-19,52.0,41.0,30.0,31.0,25.2,14.0,69,54,39,30.42,29.94,6,2,16,0.00
2013-1-20,55.0,44.5,31.0,33.0,25.5,12.0,66,49,24,30.04,29.69,7,2,26,0.00
2013-1-21,33.0,30.2,27.0,19.0,13.9,9.0,66,50,43,30.10,29.83,3,1,9,0.00
2013-1-22,29.0,21.6,15.0,19.0,4.9,-4.0,67,49,31,30.21,29.83,6,2,15,0.00
2013-1-23,21.0,16.1,12.0,3.0,-0.8,-4.0,58,47,36,30.26,30.17,3,1,12,0.00
2013-1-24,24.0,18.7,14.0,6.0,2.1,-1.0,64,49,34,30.40,30.15,5,1,14,0.00
2013-1-25,26.0,19.2,14.0,18.0,7.8,0.0,83,61,45,30.42,30.08,2,1,8,0.00
2013-1-26,28.0,21.8,17.0,14.0,10.9,7.0,81,63,45,30.38,30.05,3,1,15,0.04
2013-1-27,35.0,27.4,20.0,15.0,12.6,9.0,72,54,39,30.53,30.38,2,0,9,0.01
2013-1-28,37.0,32.8,29.0,35.0,25.4,14.0,92,75,52,30.49,30.01,4,1,13,0.23
2013-1-29,46.0,40.7,37.0,44.0,37.6,34.0,94,88,78,30.15,30.00,2,0,7,0.08
2013-1-30,55.0,47.1,38.0,53.0,45.4,36.0,97,94,85,30.10,29.39,5,1,13,0.08
2013-1-31,55.0,41.5,31.0,54.0,23.9,11.0,96,50,38,29.79,29.26,9,5,25,0.72
2013-2-1,33.0,29.4,25.0,16.0,13.5,9.0,64,51,37,30.23,29.78,5,2,16,0.03
2013-2-2,31.0,25.9,20.0,22.0,11.2,7.0,83,54,37,30.32,30.07,5,1,14,0.00
2013-2-3,32.0,27.7,25.0,23.0,21.1,18.0,88,76,61,30.07,29.79,2,0,8,0.04
2013-2-4,32.0,28.4,24.0,22.0,13.9,10.0,74,54,42,29.98,29.81,7,2,14,0.01
2013-2-5,31.0,29.8,28.0,29.0,25.2,17.0,91,83,57,29.98,29.91,2,1,7,0.00
2013-2-6,40.0,34.1,30.0,29.0,23.2,6.0,92,67,36,30.36,29.92,3,1,10,0.03
2013-2-7,32.0,29.4,27.0,22.0,11.8,5.0,70,48,35,30.52,30.35,2,1,8,0.02
2013-2-8,34.0,32.4,28.0,34.0,29.1,24.0,100,88,71,30.35,29.63,7,3,23,0.14
2013-2-9,34.0,28.6,22.0,27.0,19.7,10.0,94,71,47,30.35,29.74,5,2,15,0.21
2013-2-10,40.0,28.1,18.0,27.0,16.4,9.0,78,62,40,30.50,30.34,2,0,7,0.25
2013-2-11,45.0,39.7,33.0,44.0,37.0,25.0,97,90,71,30.34,29.66,1,0,6,0.64
2013-2-12,47.0,41.4,37.0,41.0,29.8,26.0,96,64,51,29.97,29.72,5,1,14,0.01
2013-2-13,46.0,38.5,30.0,32.0,27.2,23.0,86,64,49,29.95,29.69,2,0,8,0.01
2013-2-14,48.0,39.5,33.0,35.0,30.6,26.0,89,72,44,29.99,29.71,3,1,9,0.03
2013-2-15,55.0,44.5,38.0,39.0,35.1,31.0,80,70,48,30.02,29.92,5,1,13,0.00
2013-2-16,43.0,36.3,32.0,34.0,27.6,18.0,89,71,55,29.97,29.74,5,1,13,0.02
2013-2-17,33.0,27.7,19.0,19.0,8.6,2.0,57,44,33,30.00,29.67,6,3,16,0.01
2013-2-18,37.0,27.2,18.0,14.0,8.4,4.0,59,45,32,30.24,30.00,4,1,15,0.00
2013-2-19,47.0,40.5,33.0,44.0,30.4,14.0,92,68,44,30.21,29.67,6,2,13,0.16
2013-2-20,40.0,32.1,26.0,30.0,16.8,11.0,66,53,43,29.98,29.72,5,2,15,0.04
2013-2-21,36.0,29.0,25.0,17.0,14.5,12.0,64,54,44,30.28,29.98,5,2,17,0.00
2013-2-22,38.0,32.3,26.0,31.0,23.0,16.0,79,68,58,30.41,30.27,3,1,10,0.00
2013-2-23,40.0,37.3,36.0,39.0,35.3,31.0,95,92,79,30.28,29.81,6,2,14,0.27
2013-2-24,47.0,39.6,34.0,39.0,32.9,23.0,95,78,58,29.96,29.74,4,1,14,0.04
2013-2-25,45.0,39.0,32.0,31.0,27.1,24.0,76,62,50,30.23,29.96,3,0,10,0.01
2013-2-26,44.0,39.1,35.0,36.0,32.2,29.0,91,76,63,30.30,29.91,7,2,16,0.15
2013-2-27,46.0,41.7,36.0,45.0,39.1,34.0,99,91,78,29.92,29.50,10,2,16,0.75
2013-2-28,52.0,45.5,40.0,40.0,35.8,31.0,81,69,53,29.63,29.54,2,0,6,0.01
2013-3-1,45.0,40.1,36.0,33.0,30.6,28.0,81,69,55,29.77,29.60,3,1,10,0.00
2013-3-2,41.0,36.6,32.0,29.0,26.2,24.0,84,66,55,29.78,29.70,2,1,7,0.00
2013-3-3,41.0,33.0,30.0,27.0,21.3,17.0,80,62,47,29.76,29.66,3,1,12,0.00
2013-3-4,43.0,34.4,28.0,24.0,20.8,17.0,70,58,45,29.90,29.75,4,2,13,0.00
2013-3-5,49.0,39.9,32.0,29.0,25.7,21.0,70,57,43,30.02,29.89,3,1,10,0.00
2013-3-6,42.0,40.0,38.0,37.0,32.5,29.0,84,74,61,29.99,29.85,9,4,24,0.00
2013-3-7,39.0,36.0,33.0,33.0,31.0,28.0,92,82,70,30.08,29.92,5,2,18,0.16
2013-3-8,42.0,35.8,32.0,33.0,31.1,28.0,94,84,60,30.19,30.00,5,2,16,0.48
2013-3-9,55.0,44.6,36.0,34.0,25.2,19.0,76,49,27,30.32,30.17,4,1,14,0.13
2013-3-10,48.0,40.4,35.0,37.0,34.3,32.0,89,79,65,30.40,30.32,3,1,10,0.01
2013-3-11,53.0,46.3,40.0,46.0,41.9,36.0,92,85,73,30.33,30.11,6,2,13,0.00
2013-3-12,55.0,50.1,45.0,54.0,47.4,38.0,96,91,76,30.11,29.68,8,3,21,0.71
2013-3-13,53.0,45.5,40.0,39.0,30.9,25.0,79,58,35,29.89,29.78,8,1,14,0.31
2013-3-14,42.0,35.8,30.0,29.0,16.0,8.0,66,45,29,29.97,29.85,8,2,13,0.00
2013-3-15,47.0,38.4,31.0,33.0,20.8,11.0,63,49,37,29.98,29.71,5,1,12,0.00
2013-3-16,42.0,36.2,33.0,32.0,27.1,21.0,92,71,52,29.91,29.78,3,0,8,0.08
2013-3-17,39.0,34.4,30.0,30.0,20.8,14.0,84,59,40,30.30,29.91,5,1,12,0.05
2013-3-18,35.0,32.1,28.0,31.0,19.7,10.0,94,62,41,30.41,30.03,4,2,9,0.01
2013-3-19,43.0,37.5,33.0,37.0,34.0,30.0,95,88,72,30.04,29.70,7,2,13,0.95
2013-3-20,46.0,39.4,33.0,30.0,22.0,19.0,73,51,35,29.88,29.79,6,2,12,0.01
2013-3-21,40.0,35.5,32.0,28.0,19.5,14.0,80,53,37,29.84,29.63,3,1,9,0.00
2013-3-22,41.0,35.8,30.0,23.0,19.1,15.0,65,51,42,29.87,29.73,5,1,9,0.00
2013-3-23,47.0,39.7,34.0,25.0,22.0,20.0,63,49,37,29.93,29.80,6,2,10,0.00
2013-3-24,47.0,40.0,34.0,28.0,23.5,21.0,61,52,39,29.95,29.71,3,1,7,0.00
2013-3-25,41.0,38.7,37.0,36.0,31.2,27.0,91,75,59,29.72,29.47,7,2,14,0.17
2013-3-26,52.0,44.8,37.0,33.0,29.8,27.0,78,57,39,29.86,29.58,3,1,8,0.17
2013-3-27,53.0,44.6,37.0,34.0,27.5,24.0,65,52,32,29.97,29.86,3,1,10,0.00
2013-3-28,50.0,44.2,38.0,35.0,31.8,30.0,74,62,50,30.11,29.96,3,1,9,0.00
2013-3-29,56.0,47.7,41.0,32.0,30.5,28.0,67,52,35,30.14,30.05,5,1,12,0.00
2013-3-30,59.0,49.1,41.0,37.0,30.2,21.0,69,50,24,30.17,30.06,4,0,9,0.00
2013-3-31,54.0,48.1,42.0,44.0,36.7,-99.9,94,68,44,30.12,29.67,8,2,14,0.16
2013-4-1,63.0,49.9,39.0,46.0,39.7,15.0,95,70,36,29.90,29.61,5,2,12,0.18
2013-4-2,45.0,39.1,34.0,20.0,16.1,13.0,53,39,28,30.08,29.90,5,1,12,0.01
2013-4-3,48.0,39.7,34.0,18.0,15.0,12.0,49,37,26,30.29,30.08,4,2,10,0.00
2013-4-4,53.0,41.8,34.0,34.0,23.1,16.0,64,48,30,30.39,30.10,6,2,13,0.00
2013-4-5,63.0,49.6,42.0,33.0,26.9,20.0,66,44,20,30.10,29.70,5,1,13,0.00
2013-4-6,54.0,43.1,36.0,32.0,19.3,9.0,67,41,17,30.32,29.99,5,2,12,0.00
2013-4-7,55.0,47.9,41.0,45.0,36.5,26.0,79,65,47,30.32,30.00,9,2,17,0.00
2013-4-8,75.0,58.5,49.0,48.0,44.9,42.0,83,63,32,30.08,29.98,5,1,10,0.00
2013-4-9,83.0,67.5,50.0,54.0,46.0,36.0,89,53,20,30.01,29.89,5,1,12,0.00
2013-4-10,73.0,64.2,57.0,57.0,51.6,46.0,93,65,47,29.94,29.80,5,1,10,0.41
2013-4-11,60.0,55.7,48.0,58.0,50.3,41.0,96,82,68,30.05,29.77,6,2,12,0.42
2013-4-12,48.0,43.6,41.0,42.0,40.3,38.0,94,88,78,30.04,29.72,8,3,17,0.53
2013-4-13,59.0,48.3,42.0,43.0,39.6,35.0,93,74,44,29.98,29.74,5,1,10,0.03
2013-4-14,58.0,53.2,48.0,45.0,35.2,30.0,83,52,34,30.23,29.97,4,1,12,0.00
2013-4-15,58.0,50.1,45.0,41.0,33.8,29.0,77,54,38,30.38,30.22,5,1,13,0.00
2013-4-16,62.0,55.4,47.0,54.0,48.0,39.0,84,76,69,30.38,30.13,10,3,16,0.00
2013-4-17,70.0,62.4,56.0,57.0,47.1,37.0,89,60,32,30.29,30.11,3,1,8,0.02
2013-4-18,60.0,55.5,50.0,53.0,44.9,38.0,92,69,46,30.35,30.11,7,2,15,0.01
2013-4-19,70.0,61.0,54.0,62.0,57.3,52.0,97,88,72,30.11,29.65,8,2,16,0.02
2013-4-20,65.0,55.1,49.0,62.0,37.6,27.0,91,55,31,30.29,29.65,7,2,12,0.11
2013-4-21,55.0,46.0,38.0,33.0,25.4,21.0,59,45,28,30.62,30.28,4,1,10,0.01
2013-4-22,54.0,48.1,42.0,38.0,34.0,30.0,75,59,41,30.67,30.50,7,2,13,0.00
2013-4-23,52.0,46.3,42.0,43.0,38.1,34.0,88,73,66,30.50,30.11,5,2,12,0.00
2013-4-24,67.0,54.9,46.0,51.0,46.2,40.0,90,74,52,30.12,29.84,6,2,12,0.00
2013-4-25,66.0,56.9,47.0,54.0,34.1,23.0,90,46,19,30.26,29.86,5,1,12,0.00
2013-4-26,67.0,58.5,52.0,39.0,34.0,25.0,56,41,21,30.40,30.26,3,1,8,0.00
2013-4-27,70.0,58.6,49.0,39.0,31.3,27.0,50,36,21,30.42,30.29,4,1,10,0.00
2013-4-28,68.0,58.9,52.0,46.0,36.2,-99.9,64,45,23,30.32,30.21,6,2,13,0.00
2013-4-29,57.0,55.5,54.0,50.0,47.8,44.0,83,75,63,30.24,30.19,5,2,12,0.07
2013-4-30,67.0,58.0,52.0,49.0,38.8,25.0,83,55,20,30.34,30.21,6,2,12,0.01
2013-5-1,67.0,57.5,49.0,47.0,39.2,30.0,68,51,35,30.48,30.33,6,1,12,0.00
2013-5-2,71.0,60.0,50.0,48.0,44.2,41.0,87,58,39,30.48,30.32,5,1,9,0.00
2013-5-3,65.0,56.3,51.0,47.0,42.0,36.0,79,60,39,30.46,30.37,6,2,12,0.00
2013-5-4,69.0,55.9,50.0,48.0,44.2,41.0,83,66,43,30.37,30.26,6,2,12,0.00
2013-5-5,63.0,53.0,47.0,47.0,41.6,38.0,77,66,45,30.30,30.22,5,2,12,0.00
2013-5-6,69.0,56.4,48.0,55.0,48.0,42.0,87,74,56,30.28,30.16,4,1,9,0.00
2013-5-7,72.0,61.9,53.0,60.0,54.3,49.0,91,77,64,30.17,30.08,5,1,10,0.00
2013-5-8,65.0,59.7,57.0,62.0,56.7,52.0,97,90,79,30.11,29.98,3,1,7,2.08
2013-5-9,68.0,59.8,55.0,60.0,56.0,52.0,98,88,67,30.01,29.89,2,0,6,0.24
2013-5-10,82.0,66.7,59.0,59.0,54.9,-99.9,89,71,44,29.99,29.88,7,1,12,0.01
2013-5-11,69.0,64.7,63.0,64.0,61.5,58.0,94,89,72,29.89,29.70,4,1,12,0.59
2013-5-12,71.0,62.9,54.0,62.0,43.0,-99.9,92,53,24,29.93,29.65,7,2,18,0.02
2013-5-13,60.0,52.3,48.0,34.0,30.7,26.0,58,44,31,30.10,29.93,6,1,12,0.01
2013-5-14,62.0,53.3,43.0,38.0,30.1,23.0,70,44,22,30.13,30.01,3,1,9,0.00
2013-5-15,70.0,61.0,54.0,61.0,47.4,32.0,77,61,42,30.07,29.67,5,2,15,0.01
2013-5-16,81.0,65.2,62.0,60.0,33.2,-99.9,85,56,36,29.82,29.70,5,1,13,0.01
2013-5-17,74.0,66.7,60.0,49.0,39.1,-99.9,54,42,32,30.19,29.81,3,1,12,0.00
2013-5-18,67.0,61.5,57.0,56.0,50.8,43.0,83,69,44,30.30,30.19,4,1,8,0.00
2013-5-19,60.0,57.7,56.0,57.0,55.3,50.0,98,92,69,30.32,30.18,3,1,12,0.50
2013-5-20,80.0,68.4,58.0,68.0,62.8,57.0,99,84,64,30.18,29.95,4,1,9,0.06
2013-5-21,89.0,78.4,68.0,71.0,68.4,65.0,91,73,54,29.97,29.82,5,1,13,0.00
2013-5-22,79.0,70.4,59.0,71.0,64.7,56.0,94,82,71,29.93,29.83,5,1,13,0.00
2013-5-23,83.0,70.6,64.0,70.0,66.1,62.0,95,86,61,29.89,29.75,7,2,15,1.36
2013-5-24,67.0,57.5,47.0,64.0,54.2,42.0,95,89,78,29.93,29.67,3,1,18,0.20
2013-5-25,55.0,49.8,45.0,46.0,43.4,40.0,91,79,63,29.99,29.89,5,2,17,0.13
2013-5-26,68.0,57.8,48.0,42.0,39.2,36.0,73,52,34,30.20,29.95,5,2,12,0.01
2013-5-27,77.0,65.2,53.0,43.0,39.6,37.0,56,40,27,30.24,30.10,3,1,12,0.00
2013-5-28,72.0,62.1,57.0,59.0,51.1,41.0,96,70,38,30.22,30.13,2,0,8,0.39
2013-5-29,85.0,70.3,58.0,70.0,63.1,57.0,98,80,59,30.13,29.99,3,0,10,0.06
2013-5-30,95.0,84.9,75.0,69.0,66.7,64.0,78,56,37,30.11,30.04,3,1,10,0.01
2013-5-31,96.0,85.8,77.0,70.0,67.2,63.0,72,55,40,30.11,29.97,5,1,13,0.00
2013-6-1,92.0,83.6,75.0,70.0,68.4,65.0,77,61,46,30.01,29.88,5,2,12,0.00
2013-6-2,92.0,82.7,75.0,71.0,67.5,-99.9,79,64,48,29.91,29.75,6,2,16,0.25
2013-6-3,80.0,73.0,70.0,70.0,67.5,51.0,94,83,52,29.86,29.79,3,1,12,1.45
2013-6-4,77.0,68.1,58.0,52.0,45.3,41.0,60,45,31,30.10,29.85,3,1,12,0.01
2013-6-5,76.0,67.3,60.0,56.0,46.1,38.0,78,48,35,30.20,30.10,4,1,15,0.00
2013-6-6,73.0,65.5,61.0,60.0,56.5,49.0,90,75,45,30.14,30.01,6,2,14,0.08
2013-6-7,63.0,61.3,59.0,62.0,59.9,58.0,97,96,91,30.01,29.63,9,2,18,3.07
2013-6-8,78.0,68.5,57.0,65.0,61.3,56.0,97,80,63,30.03,29.57,5,1,10,2.05
2013-6-9,84.0,74.0,64.0,63.0,60.6,57.0,86,65,44,30.16,30.03,4,0,12,0.01
2013-6-10,72.0,66.6,63.0,67.0,63.6,62.0,97,90,74,30.15,29.83,5,1,17,1.23
2013-6-11,83.0,73.0,63.0,70.0,65.3,61.0,99,79,57,29.84,29.60,6,1,18,0.60
2013-6-12,77.0,73.2,66.0,61.0,55.8,53.0,71,55,46,29.84,29.70,5,1,14,0.02
2013-6-13,70.0,64.4,57.0,61.0,58.3,55.0,94,81,61,29.83,29.45,8,2,20,1.01
2013-6-14,76.0,62.9,54.0,60.0,54.2,51.0,93,75,52,29.87,29.50,6,1,15,0.89
2013-6-15,83.0,74.7,64.0,59.0,54.7,51.0,78,52,35,30.00,29.87,3,0,8,0.01
2013-6-16,84.0,75.4,66.0,67.0,58.8,53.0,75,57,39,29.98,29.76,9,1,17,0.00
2013-6-17,88.0,78.5,71.0,68.0,66.0,63.0,83,67,49,29.90,29.82,6,1,12,0.01
2013-6-18,85.0,73.0,67.0,70.0,66.0,63.0,92,80,53,29.89,29.81,4,1,9,0.21
2013-6-19,78.0,69.7,61.0,64.0,54.4,46.0,94,62,34,30.16,29.87,5,1,8,0.16
2013-6-20,81.0,71.6,65.0,60.0,55.0,51.0,65,56,42,30.25,30.15,5,1,12,0.00
2013-6-22,86.0,78.2,73.0,65.0,59.4,55.0,61,53,41,30.24,30.13,5,2,10,0.00
2013-6-23,90.0,79.4,72.0,72.0,67.4,59.0,83,67,51,30.18,30.05,6,2,13,0.00
2013-6-24,97.0,82.9,76.0,73.0,70.9,64.0,87,69,36,30.07,29.93,5,1,12,0.00
2013-6-25,95.0,85.1,76.0,72.0,69.0,65.0,74,59,42,29.98,29.79,6,2,13,0.00
2013-6-26,88.0,82.2,76.0,73.0,69.2,66.0,79,66,51,29.83,29.76,3,1,9,0.06
2013-6-27,86.0,78.9,74.0,74.0,71.0,69.0,93,78,63,29.81,29.55,6,2,12,0.16
2013-6-28,89.0,80.3,75.0,73.0,70.7,65.0,93,73,53,29.55,29.46,5,2,10,0.17
2013-6-29,86.0,78.9,73.0,73.0,69.1,65.0,85,73,55,29.68,29.48,8,2,12,0.00
2013-6-30,87.0,77.8,74.0,75.0,72.2,70.0,91,83,64,29.90,29.68,6,2,12,0.01
2013-7-1,77.0,74.6,74.0,74.0,71.9,71.0,94,91,86,30.04,29.89,4,1,10,0.83
2013-7-2,84.0,77.2,73.0,75.0,72.7,71.0,95,86,73,30.17,30.04,5,2,12,0.07
2013-7-3,87.0,78.4,74.0,76.0,73.0,69.0,94,84,67,30.23,30.15,5,1,12,0.81
2013-7-4,93.0,84.4,77.0,77.0,74.2,72.0,93,73,54,30.24,30.13,5,2,13,0.50
2013-7-5,94.0,84.9,78.0,76.0,73.4,71.0,86,70,51,30.20,30.07,5,2,12,0.01
2013-7-6,96.0,86.5,80.0,75.0,73.4,71.0,82,66,46,30.12,30.00,6,1,8,0.00
2013-7-7,98.0,89.2,82.0,76.0,73.4,67.0,75,60,48,30.04,29.90,5,1,13,0.00
2013-7-8,92.0,81.8,75.0,72.0,68.7,66.0,79,66,46,30.02,29.94,5,1,12,0.00
2013-7-9,91.0,82.4,77.0,74.0,69.7,67.0,78,66,52,30.06,29.96,5,1,15,0.15
2013-7-10,89.0,81.5,76.0,77.0,69.8,-99.9,87,71,58,30.01,29.78,5,2,14,0.02
2013-7-11,86.0,81.8,78.0,75.0,70.4,62.0,82,69,52,29.91,29.78,3,1,12,0.01
2013-7-12,79.0,74.6,69.0,70.0,65.7,62.0,94,74,59,30.08,29.91,5,2,15,0.20
2013-7-13,80.0,73.7,68.0,74.0,70.7,66.0,98,90,79,30.27,30.09,5,1,12,0.33
2013-7-14,94.0,83.6,74.0,76.0,73.0,70.0,96,73,48,30.32,30.21,3,0,10,0.03
2013-7-15,96.0,87.2,80.0,75.0,73.2,71.0,80,64,47,30.23,30.10,2,1,8,0.00
2013-7-16,95.0,87.7,80.0,74.0,68.9,64.0,73,55,37,30.19,30.11,4,1,12,0.00
2013-7-17,97.0,87.4,82.0,73.0,70.5,67.0,71,58,40,30.17,30.04,3,0,9,0.00
2013-7-18,99.0,90.4,83.0,76.0,72.7,71.0,70,57,41,30.05,29.93,2,0,9,0.00
2013-7-19,100.0,92.5,86.0,79.0,76.6,74.0,71,60,45,29.95,29.77,6,1,17,0.00
2013-7-20,95.0,87.9,83.0,77.0,71.6,-99.9,73,60,48,29.82,29.70,5,2,15,0.00
2013-7-21,88.0,82.8,78.0,73.0,67.0,61.0,79,60,42,29.94,29.81,4,1,12,0.00
2013-7-22,84.0,77.5,75.0,75.0,72.7,69.0,94,85,74,29.94,29.80,3,1,12,0.06
2013-7-23,91.0,80.9,75.0,75.0,72.9,71.0,96,78,54,29.80,29.54,4,1,16,0.26
2013-7-24,84.0,79.2,72.0,71.0,66.5,57.0,82,66,53,29.92,29.60,4,1,10,0.01
2013-7-25,71.0,66.5,65.0,60.0,55.9,53.0,81,69,60,30.04,29.91,3,2,12,0.01
2013-7-26,84.0,73.6,65.0,67.0,62.0,59.0,84,68,46,30.03,29.98,4,1,10,0.02
2013-7-27,84.0,77.5,71.0,68.0,64.9,59.0,84,67,45,30.04,29.95,5,2,14,0.00
2013-7-28,80.0,74.6,71.0,72.0,68.5,65.0,92,82,62,29.98,29.91,5,1,13,0.13
2013-7-29,89.0,77.1,70.0,71.0,65.0,52.0,95,70,36,30.08,29.94,3,0,13,0.07
2013-7-30,82.0,75.5,69.0,60.0,57.8,56.0,66,55,44,30.15,30.08,3,0,7,0.01
2013-7-31,83.0,75.7,69.0,65.0,60.4,58.0,70,60,45,30.15,30.03,5,1,10,0.00
2013-8-1,78.0,72.2,68.0,69.0,65.9,63.0,94,81,62,30.03,29.82,3,1,12,0.62
2013-8-2,86.0,76.7,68.0,69.0,64.4,59.0,94,69,42,29.90,29.78,5,1,14,0.26
2013-8-3,80.0,75.0,71.0,68.0,63.3,58.0,85,68,54,29.90,29.82,3,1,13,0.04
2013-8-4,81.0,74.3,68.0,66.0,58.1,53.0,81,58,40,29.95,29.83,3,1,12,0.01
2013-8-5,79.0,71.2,63.0,54.0,51.2,45.0,71,51,35,30.04,29.95,3,1,12,0.00
2013-8-6,82.0,73.4,66.0,62.0,57.0,53.0,73,58,38,30.11,30.02,5,1,13,0.00
2013-8-7,80.0,74.2,71.0,69.0,64.6,61.0,87,72,58,30.13,30.06,6,2,17,0.01
2013-8-8,84.0,74.9,71.0,75.0,71.1,68.0,93,88,73,30.07,29.99,4,1,12,0.43
2013-8-9,89.0,78.8,74.0,77.0,73.7,71.0,95,85,66,30.01,29.79,4,2,17,0.11
2013-8-10,86.0,78.9,71.0,73.0,63.7,56.0,85,61,46,30.03,29.83,4,1,9,0.01
2013-8-11,82.0,74.5,67.0,66.0,57.4,52.0,74,56,41,30.11,30.01,2,0,9,0.00
2013-8-12,83.0,75.2,71.0,70.0,68.1,62.0,90,79,50,30.03,29.92,3,0,8,0.06
2013-8-13,78.0,73.1,70.0,73.0,66.9,-99.9,94,84,71,29.92,29.69,3,0,10,0.66
2013-8-14,75.0,68.6,61.0,67.0,54.2,48.0,91,61,49,30.03,29.73,4,1,13,0.05
2013-8-15,79.0,63.6,62.0,56.0,37.0,-99.9,70,51,36,30.13,30.03,2,0,9,0.00
2013-8-16,83.0,71.3,64.0,60.0,51.6,-99.9,78,55,36,30.19,30.11,3,1,12,0.00
2013-8-17,83.0,74.6,66.0,61.0,57.1,52.0,72,55,35,30.26,30.19,3,0,9,0.00
2013-8-18,77.0,72.0,70.0,65.0,58.5,-99.9,81,65,49,30.25,30.12,3,0,8,0.00
2013-8-19,81.0,69.8,68.0,66.0,49.5,-99.9,81,67,53,30.12,30.02,3,0,10,0.00
2013-8-20,90.0,76.3,68.0,71.0,63.3,-99.9,87,69,40,30.11,30.03,2,0,8,0.00
2013-8-21,91.0,80.9,73.0,70.0,65.8,61.0,76,62,37,30.16,30.04,3,0,12,0.00
2013-8-22,80.0,77.2,73.0,73.0,71.3,68.0,92,82,67,30.05,29.86,2,0,8,0.21
2013-8-23,82.0,76.3,71.0,72.0,61.3,54.0,88,62,39,30.08,29.86,3,1,12,0.01
2013-8-24,81.0,71.9,64.0,61.0,55.2,49.0,70,56,33,30.34,30.09,4,1,10,0.00
2013-8-25,85.0,73.5,65.0,61.0,55.5,-99.9,81,57,35,30.38,30.22,3,1,12,0.00
2013-8-26,86.0,76.8,70.0,70.0,62.6,56.0,80,62,51,30.22,29.90,5,1,12,0.02
2013-8-27,87.0,76.9,73.0,70.0,68.7,68.0,85,77,56,29.90,29.80,4,1,14,0.03
2013-8-28,83.0,76.1,74.0,73.0,72.0,70.0,92,87,64,29.88,29.84,1,0,6,0.31
2013-8-29,80.0,74.4,71.0,71.0,68.4,66.0,92,82,65,30.01,29.87,4,1,12,0.01
2013-8-30,86.0,76.8,70.0,72.0,67.9,65.0,85,75,54,30.02,29.85,3,1,12,0.00